createdAt,value
2018-02-04T00:01:04.251Z,90.52
2018-02-04T00:03:30.247Z,90.65
2018-02-04T00:05:56.331Z,90.19
2018-02-04T00:08:22.344Z,89.99
2018-02-04T00:10:48.356Z,90.21
2018-02-04T00:13:14.393Z,90.13
2018-02-04T00:15:40.408Z,90.34
2018-02-04T00:18:06.475Z,90.32
2018-02-04T00:20:32.490Z,90.60
2018-02-04T00:22:58.477Z,90.17
2018-02-04T00:25:24.559Z,90.21
2018-02-04T00:27:50.552Z,90.10
2018-02-04T00:30:16.600Z,89.91
2018-02-04T00:32:42.591Z,90.49
2018-02-04T00:35:08.705Z,90.57
2018-02-04T00:37:34.736Z,89.93
2018-02-04T00:40:00.724Z,89.77
2018-02-04T00:42:26.779Z,89.61
2018-02-04T00:44:52.805Z,89.60
2018-02-04T00:47:18.752Z,89.08
2018-02-04T00:49:44.752Z,88.17
2018-02-04T00:52:10.772Z,88.72
2018-02-04T00:54:36.737Z,89.39
2018-02-04T00:57:02.789Z,89.38
2018-02-04T00:59:28.832Z,89.55
2018-02-04T01:01:54.857Z,89.61
2018-02-04T01:04:20.796Z,89.52
2018-02-04T01:06:46.785Z,89.36
2018-02-04T01:09:12.760Z,89.08
2018-02-04T01:11:38.772Z,89.45
2018-02-04T01:14:04.861Z,89.43
2018-02-04T01:16:30.957Z,89.03
2018-02-04T01:18:56.897Z,88.99
2018-02-04T01:21:22.931Z,88.98
2018-02-04T01:23:48.868Z,88.75
2018-02-04T01:26:14.905Z,88.63
2018-02-04T01:28:40.963Z,88.54
2018-02-04T01:31:06.991Z,89.15
2018-02-04T01:33:33.081Z,90.10
2018-02-04T01:35:59.040Z,90.54
2018-02-04T01:38:25.051Z,90.85
2018-02-04T01:40:51.048Z,90.27
2018-02-04T01:43:17.516Z,90.00
2018-02-04T01:45:43.653Z,90.04
2018-02-04T01:48:09.660Z,89.67
2018-02-04T01:50:35.675Z,89.50
2018-02-04T01:53:01.753Z,89.83
2018-02-04T01:55:27.867Z,89.88
2018-02-04T01:57:53.872Z,89.68
2018-02-04T02:00:19.995Z,89.44
2018-02-04T02:02:46.032Z,89.04
2018-02-04T02:05:12.013Z,89.15
2018-02-04T02:07:38.024Z,89.17
2018-02-04T02:10:04.092Z,89.08
2018-02-04T02:12:30.121Z,89.59
2018-02-04T02:14:56.105Z,89.57
2018-02-04T02:17:22.173Z,89.63
2018-02-04T02:19:48.183Z,89.83
2018-02-04T02:22:14.196Z,90.41
2018-02-04T02:24:40.212Z,91.47
2018-02-04T02:27:06.214Z,91.44
2018-02-04T02:29:32.303Z,91.61
2018-02-04T02:31:58.276Z,91.07
2018-02-04T02:34:24.260Z,90.31
2018-02-04T02:36:50.270Z,89.01
2018-02-04T02:39:16.338Z,88.91
2018-02-04T02:41:42.365Z,88.79
2018-02-04T02:44:08.368Z,89.67
2018-02-04T02:46:34.349Z,90.29
2018-02-04T02:49:00.354Z,90.09
2018-02-04T02:51:26.461Z,90.36
2018-02-04T02:53:52.477Z,89.67
2018-02-04T02:56:18.476Z,89.36
2018-02-04T02:58:44.482Z,89.21
2018-02-04T03:01:10.533Z,89.55
2018-02-04T03:03:36.506Z,90.04
2018-02-04T03:06:02.466Z,90.04
2018-02-04T03:08:28.500Z,89.75
2018-02-04T03:10:54.496Z,88.83
2018-02-04T03:13:20.472Z,88.84
2018-02-04T03:15:46.520Z,88.51
2018-02-04T03:18:12.463Z,88.03
2018-02-04T03:20:38.453Z,88.48
2018-02-04T03:23:04.470Z,89.31
2018-02-04T03:25:30.540Z,90.07
2018-02-04T03:27:56.580Z,90.19
2018-02-04T03:30:22.977Z,89.68
2018-02-04T03:32:48.993Z,89.93
2018-02-04T03:35:14.987Z,89.94
2018-02-04T03:37:40.997Z,89.51
2018-02-04T03:40:06.947Z,89.24
2018-02-04T03:42:32.959Z,89.42
2018-02-04T03:44:58.976Z,89.52
2018-02-04T03:47:25.024Z,89.15
2018-02-04T03:49:50.992Z,88.63
2018-02-04T03:52:16.932Z,89.15
2018-02-04T03:54:43.208Z,88.53
2018-02-04T03:57:09.236Z,89.49
2018-02-04T03:59:35.321Z,90.07
2018-02-04T04:02:01.407Z,90.46
2018-02-04T04:04:27.469Z,90.41
2018-02-04T04:06:53.501Z,90.65
2018-02-04T04:09:19.514Z,91.81
2018-02-04T04:11:45.596Z,92.02
2018-02-04T04:14:11.612Z,92.20
2018-02-04T04:16:37.611Z,92.62
2018-02-04T04:19:03.669Z,92.37
2018-02-04T04:21:29.692Z,93.01
2018-02-04T04:23:55.770Z,92.78
2018-02-04T04:26:21.721Z,91.63
2018-02-04T04:28:47.781Z,91.50
2018-02-04T04:31:13.775Z,91.91
2018-02-04T04:33:39.825Z,92.08
2018-02-04T04:36:05.801Z,92.48
2018-02-04T04:38:31.813Z,92.24
2018-02-04T04:40:57.820Z,91.71
2018-02-04T04:43:23.905Z,91.73
2018-02-04T04:45:49.904Z,91.92
2018-02-04T04:48:15.912Z,91.50
2018-02-04T04:50:41.925Z,91.58
2018-02-04T04:53:07.935Z,91.17
2018-02-04T04:55:33.957Z,92.02
2018-02-04T04:57:59.952Z,91.81
2018-02-04T05:00:25.984Z,91.88
2018-02-04T05:02:51.981Z,91.89
2018-02-04T05:05:17.993Z,92.33
2018-02-04T05:07:44.066Z,92.69
2018-02-04T05:10:10.019Z,93.31
2018-02-04T05:12:35.944Z,93.05
2018-02-04T05:15:02.173Z,92.88
2018-02-04T05:17:28.092Z,92.81
2018-02-04T05:19:54.101Z,92.61
2018-02-04T05:22:20.115Z,92.62
2018-02-04T05:24:46.088Z,91.95
2018-02-04T05:27:12.102Z,91.58
2018-02-04T05:29:38.098Z,91.38
2018-02-04T05:32:04.140Z,90.90
2018-02-04T05:34:30.132Z,91.06
2018-02-04T05:36:56.163Z,90.88
2018-02-04T05:39:22.172Z,90.65
2018-02-04T05:41:48.089Z,90.65
2018-02-04T05:44:14.112Z,89.77
2018-02-04T05:46:40.124Z,89.65
2018-02-04T05:49:06.128Z,89.51
2018-02-04T05:51:32.326Z,89.55
2018-02-04T05:53:58.308Z,89.66
2018-02-04T05:56:24.341Z,90.12
2018-02-04T05:58:50.336Z,90.32
2018-02-04T06:01:16.354Z,90.65
2018-02-04T06:03:42.410Z,91.25
2018-02-04T06:06:08.450Z,91.74
2018-02-04T06:08:34.468Z,92.50
2018-02-04T06:11:00.580Z,92.52
2018-02-04T06:13:26.560Z,93.30
2018-02-04T06:15:52.593Z,92.82
2018-02-04T06:18:18.636Z,93.15
2018-02-04T06:20:44.821Z,93.51
2018-02-04T06:23:10.841Z,93.90
2018-02-04T06:25:36.874Z,94.41
2018-02-04T06:28:02.925Z,94.40
2018-02-04T06:30:28.896Z,94.42
2018-02-04T06:32:54.912Z,94.40
2018-02-04T06:35:20.920Z,94.13
2018-02-04T06:37:46.894Z,93.64
2018-02-04T06:40:12.894Z,93.82
2018-02-04T06:42:38.876Z,93.73
2018-02-04T06:45:04.981Z,94.12
2018-02-04T06:47:30.971Z,94.40
2018-02-04T06:49:56.917Z,94.05
2018-02-04T06:52:22.936Z,93.99
2018-02-04T06:54:48.927Z,93.82
2018-02-04T06:57:14.932Z,92.72
2018-02-04T06:59:40.925Z,92.41
2018-02-04T07:02:06.929Z,92.68
2018-02-04T07:04:32.908Z,92.53
2018-02-04T07:06:58.892Z,92.39
2018-02-04T07:09:24.897Z,92.38
2018-02-04T07:11:50.868Z,92.21
2018-02-04T07:14:16.892Z,92.19
2018-02-04T07:16:42.877Z,92.22
2018-02-04T07:19:08.860Z,92.60
2018-02-04T07:21:34.870Z,93.01
2018-02-04T07:24:00.814Z,92.87
2018-02-04T07:26:26.832Z,92.93
2018-02-04T07:28:52.832Z,93.30
2018-02-04T07:31:18.953Z,93.39
2018-02-04T07:33:44.949Z,92.88
2018-02-04T07:36:10.926Z,92.65
2018-02-04T07:38:36.965Z,92.69
2018-02-04T07:41:02.973Z,92.54
2018-02-04T07:43:29.056Z,92.16
2018-02-04T07:45:55.040Z,91.50
2018-02-04T07:48:21.052Z,91.67
2018-02-04T07:50:47.076Z,91.77
2018-02-04T07:53:13.060Z,91.72
2018-02-04T07:55:39.111Z,91.89
2018-02-04T07:58:05.287Z,91.54
2018-02-04T08:00:31.317Z,91.64
2018-02-04T08:02:57.345Z,92.54
2018-02-04T08:05:23.425Z,92.91
2018-02-04T08:07:49.441Z,93.05
2018-02-04T08:10:15.850Z,93.48
2018-02-04T08:12:41.872Z,93.27
2018-02-04T08:15:08.360Z,93.20
2018-02-04T08:17:34.508Z,93.61
2018-02-04T08:20:00.505Z,93.84
2018-02-04T08:22:26.539Z,93.65
2018-02-04T08:24:52.612Z,93.42
2018-02-04T08:27:18.591Z,93.77
2018-02-04T08:29:44.613Z,93.25
2018-02-04T08:32:10.638Z,93.67
2018-02-04T08:34:36.634Z,93.35
2018-02-04T08:37:02.657Z,93.43
2018-02-04T08:39:28.897Z,93.97
2018-02-04T08:41:54.897Z,94.51
2018-02-04T08:44:20.908Z,95.12
2018-02-04T08:46:46.920Z,94.87
2018-02-04T08:49:12.947Z,94.98
2018-02-04T08:51:38.961Z,95.14
2018-02-04T08:54:05.017Z,95.21
2018-02-04T08:56:30.991Z,94.89
2018-02-04T08:58:56.989Z,94.63
2018-02-04T09:01:22.995Z,94.53
2018-02-04T09:03:49.041Z,94.68
2018-02-04T09:06:15.073Z,94.40
2018-02-04T09:08:41.070Z,94.33
2018-02-04T09:11:07.100Z,94.85
2018-02-04T09:13:33.127Z,95.33
2018-02-04T09:15:59.114Z,95.39
2018-02-04T09:18:25.136Z,95.42
2018-02-04T09:20:51.095Z,95.32
2018-02-04T09:23:17.144Z,95.01
2018-02-04T09:25:43.148Z,94.63
2018-02-04T09:28:09.117Z,94.55
2018-02-04T09:30:35.130Z,94.34
2018-02-04T09:33:01.134Z,94.57
2018-02-04T09:35:27.150Z,94.01
2018-02-04T09:37:53.151Z,94.50
2018-02-04T09:40:19.124Z,94.08
2018-02-04T09:42:45.128Z,93.71
2018-02-04T09:45:11.101Z,92.99
2018-02-04T09:47:37.156Z,92.18
2018-02-04T09:50:03.383Z,91.55
2018-02-04T09:52:29.441Z,91.24
2018-02-04T09:54:55.495Z,91.78
2018-02-04T09:57:21.488Z,92.17
2018-02-04T09:59:47.504Z,91.55
2018-02-04T10:02:13.511Z,92.22
2018-02-04T10:04:39.684Z,92.63
2018-02-04T10:07:06.171Z,92.85
2018-02-04T10:09:32.405Z,92.76
2018-02-04T10:11:58.466Z,92.81
2018-02-04T10:14:24.477Z,92.47
2018-02-04T10:16:50.666Z,91.74
2018-02-04T10:19:16.713Z,91.71
2018-02-04T10:21:42.697Z,90.74
2018-02-04T10:24:08.738Z,92.24
2018-02-04T10:26:34.761Z,91.96
2018-02-04T10:29:00.707Z,91.43
2018-02-04T10:31:26.793Z,92.45
2018-02-04T10:33:52.788Z,91.92
2018-02-04T10:36:18.805Z,91.26
2018-02-04T10:38:44.809Z,90.66
2018-02-04T10:41:10.806Z,90.11
2018-02-04T10:43:36.857Z,89.61
2018-02-04T10:46:02.917Z,89.94
2018-02-04T10:48:28.933Z,89.52
2018-02-04T10:51:00.984Z,90.12
2018-02-04T10:53:27.079Z,89.13
2018-02-04T10:55:53.037Z,88.85
2018-02-04T10:58:19.176Z,88.79
2018-02-04T11:00:45.210Z,88.75
2018-02-04T11:03:11.544Z,88.99
2018-02-04T11:05:37.591Z,88.91
2018-02-04T11:08:03.622Z,89.25
2018-02-04T11:10:29.665Z,89.93
2018-02-04T11:12:55.715Z,89.50
2018-02-04T11:15:21.844Z,89.08
2018-02-04T11:17:47.936Z,89.07
2018-02-04T11:20:13.988Z,88.97
2018-02-04T11:22:40.055Z,88.49
2018-02-04T11:25:06.086Z,87.82
2018-02-04T11:27:32.204Z,87.51
2018-02-04T11:29:58.243Z,87.00
2018-02-04T11:32:24.269Z,86.59
2018-02-04T11:34:50.416Z,86.72
2018-02-04T11:37:16.450Z,86.65
2018-02-04T11:39:42.545Z,87.00
2018-02-04T11:42:08.584Z,87.23
2018-02-04T11:44:34.609Z,86.87
2018-02-04T11:47:00.700Z,87.43
2018-02-04T11:49:26.778Z,86.97
2018-02-04T11:51:52.869Z,88.01
2018-02-04T11:54:18.933Z,88.08
2018-02-04T11:56:45.001Z,87.99
2018-02-04T11:59:11.010Z,87.94
2018-02-04T12:01:37.065Z,87.67
2018-02-04T12:04:03.072Z,87.49
2018-02-04T12:06:29.095Z,88.22
2018-02-04T12:08:55.088Z,88.42
2018-02-04T12:11:21.089Z,88.02
2018-02-04T12:13:47.180Z,87.85
2018-02-04T12:16:13.168Z,87.89
2018-02-04T12:18:39.181Z,87.02
2018-02-04T12:21:05.308Z,86.48
2018-02-04T12:23:31.339Z,86.63
2018-02-04T12:25:57.376Z,86.24
2018-02-04T12:28:23.478Z,85.99
2018-02-04T12:30:51.782Z,86.33
2018-02-04T12:33:17.861Z,86.02
2018-02-04T12:35:43.966Z,85.90
2018-02-04T12:38:10.017Z,85.95
2018-02-04T12:40:36.049Z,84.69
2018-02-04T12:43:02.500Z,85.50
2018-02-04T12:45:28.492Z,86.51
2018-02-04T12:47:54.516Z,87.08
2018-02-04T12:50:20.649Z,86.21
2018-02-04T12:52:46.727Z,86.52
2018-02-04T12:55:13.052Z,86.43
2018-02-04T12:57:39.092Z,86.32
2018-02-04T13:00:05.132Z,87.81
2018-02-04T13:02:31.150Z,86.46
2018-02-04T13:04:57.104Z,86.77
2018-02-04T13:07:23.097Z,87.18
2018-02-04T13:09:49.173Z,87.05
2018-02-04T13:12:15.178Z,86.97
2018-02-04T13:14:41.679Z,86.08
2018-02-04T13:17:07.729Z,85.60
2018-02-04T13:19:33.767Z,85.39
2018-02-04T13:21:59.797Z,85.36
2018-02-04T13:24:25.830Z,84.91
2018-02-04T13:26:52.199Z,85.44
2018-02-04T13:29:18.250Z,85.06
2018-02-04T13:31:44.392Z,85.01
2018-02-04T13:34:10.462Z,83.89
2018-02-04T13:36:36.430Z,83.98
2018-02-04T13:39:02.472Z,85.89
2018-02-04T13:41:28.584Z,86.30
2018-02-04T13:43:55.012Z,86.21
2018-02-04T13:46:21.065Z,86.54
2018-02-04T13:48:47.137Z,85.94
2018-02-04T13:51:13.183Z,86.00
2018-02-04T13:53:39.423Z,86.33
2018-02-04T13:56:05.800Z,86.25
2018-02-04T13:58:31.844Z,86.99
2018-02-04T14:00:57.931Z,86.78
2018-02-04T14:03:24.404Z,86.33
2018-02-04T14:05:50.425Z,86.07
2018-02-04T14:08:16.529Z,86.08
2018-02-04T14:10:42.519Z,86.55
2018-02-04T14:13:08.818Z,86.12
2018-02-04T14:15:34.604Z,83.43
2018-02-04T14:18:01.009Z,83.10
2018-02-04T14:20:27.058Z,84.00
2018-02-04T14:22:53.103Z,83.85
2018-02-04T14:25:21.024Z,80.72
2018-02-04T14:27:47.129Z,81.32
2018-02-04T14:30:13.148Z,82.64
2018-02-04T14:32:39.256Z,84.73
2018-02-04T14:35:05.400Z,84.98
2018-02-04T14:37:31.505Z,86.10
2018-02-04T14:39:58.083Z,83.65
2018-02-04T14:42:24.150Z,80.43
2018-02-04T14:44:50.499Z,79.87
2018-02-04T14:47:16.645Z,79.60
2018-02-04T14:49:42.683Z,78.71
2018-02-04T14:52:11.219Z,79.40
2018-02-04T14:54:37.284Z,79.96
2018-02-04T14:57:03.692Z,78.37
2018-02-04T14:59:29.734Z,78.25
2018-02-04T15:01:55.883Z,77.42
2018-02-04T15:04:21.971Z,77.64
2018-02-04T15:06:48.453Z,76.27
2018-02-04T15:09:14.527Z,74.68
2018-02-04T15:11:40.604Z,77.26
2018-02-04T15:14:07.383Z,75.88
2018-02-04T15:16:33.481Z,75.54
2018-02-04T15:18:59.512Z,74.23
2018-02-04T15:21:25.679Z,75.79
2018-02-04T15:23:51.753Z,77.55
2018-02-04T15:26:17.838Z,77.21
2018-02-04T15:28:43.918Z,76.86
2018-02-04T15:31:09.935Z,79.15
2018-02-04T15:33:35.966Z,81.07
2018-02-04T15:36:02.117Z,81.04
2018-02-04T15:38:28.217Z,82.17
2018-02-04T15:40:54.255Z,82.73
2018-02-04T15:43:20.364Z,84.18
2018-02-04T15:45:46.450Z,85.27
2018-02-04T15:48:12.502Z,86.79
2018-02-04T15:50:40.134Z,87.16
2018-02-04T15:53:06.328Z,87.53
2018-02-04T15:55:32.417Z,87.62
2018-02-04T15:57:58.456Z,87.54
2018-02-04T16:00:24.886Z,87.74
2018-02-04T16:02:51.016Z,88.37
2018-02-04T16:05:17.141Z,88.24
2018-02-04T16:07:43.215Z,88.37
2018-02-04T16:10:09.293Z,88.47
2018-02-04T16:12:35.361Z,88.45
2018-02-04T16:15:01.468Z,88.71
2018-02-04T16:17:27.844Z,88.75
2018-02-04T16:19:53.969Z,88.43
2018-02-04T16:22:20.065Z,88.76
2018-02-04T16:24:46.189Z,88.69
2018-02-04T16:27:12.330Z,88.56
2018-02-04T16:29:38.423Z,89.41
2018-02-04T16:32:04.473Z,90.31
2018-02-04T16:34:30.882Z,90.88
2018-02-04T16:36:56.941Z,90.43
2018-02-04T16:39:23.041Z,89.91
2018-02-04T16:41:49.112Z,90.50
2018-02-04T16:44:15.249Z,90.81
2018-02-04T16:46:41.324Z,90.89
2018-02-04T16:49:07.367Z,90.89
2018-02-04T16:51:33.905Z,90.97
2018-02-04T16:53:59.985Z,90.96
2018-02-04T16:56:30.344Z,90.66
2018-02-04T16:58:56.440Z,90.33
2018-02-04T17:01:22.500Z,90.13
2018-02-04T17:03:48.548Z,90.03
2018-02-04T17:06:14.560Z,90.18
2018-02-04T17:08:41.069Z,91.10
2018-02-04T17:11:07.112Z,90.00
2018-02-04T17:13:33.313Z,89.53
2018-02-04T17:15:59.398Z,89.63
2018-02-04T17:18:25.434Z,89.71
2018-02-04T17:20:51.593Z,89.43
2018-02-04T17:23:17.642Z,89.62
2018-02-04T17:25:44.072Z,89.50
2018-02-04T17:28:10.421Z,89.61
2018-02-04T17:30:36.444Z,89.35
2018-02-04T17:33:02.524Z,89.95
2018-02-04T17:35:28.609Z,89.46
2018-02-04T17:37:54.651Z,89.26
2018-02-04T17:40:20.698Z,89.67
2018-02-04T17:42:47.157Z,89.29
2018-02-04T17:45:13.229Z,89.53
2018-02-04T17:47:39.439Z,89.11
2018-02-04T17:50:05.510Z,89.55
2018-02-04T17:52:31.576Z,89.52
2018-02-04T17:54:57.640Z,89.70
2018-02-04T17:57:23.664Z,89.18
2018-02-04T17:59:49.710Z,89.24
2018-02-04T18:02:15.710Z,89.56
2018-02-04T18:04:41.761Z,89.29
2018-02-04T18:07:07.799Z,89.37
2018-02-04T18:09:33.834Z,89.99
2018-02-04T18:12:00.292Z,89.72
2018-02-04T18:14:26.414Z,89.86
2018-02-04T18:16:52.471Z,89.71
2018-02-04T18:19:18.564Z,89.04
2018-02-04T18:21:44.580Z,89.03
2018-02-04T18:24:11.073Z,89.21
2018-02-04T18:26:37.144Z,89.76
2018-02-04T18:29:03.237Z,89.70
2018-02-04T18:31:29.300Z,90.15
2018-02-04T18:33:55.256Z,90.10
2018-02-04T18:36:21.690Z,90.24
2018-02-04T18:38:47.732Z,90.35
2018-02-04T18:41:14.254Z,90.48
2018-02-04T18:43:40.339Z,89.74
2018-02-04T18:46:06.432Z,89.56
2018-02-04T18:48:32.818Z,89.43
2018-02-04T18:50:58.949Z,89.84
2018-02-04T18:53:25.015Z,89.78
2018-02-04T18:55:51.201Z,89.68
2018-02-04T18:58:17.264Z,89.74
2018-02-04T19:00:43.312Z,89.92
2018-02-04T19:03:09.338Z,89.66
2018-02-04T19:05:38.230Z,89.45
2018-02-04T19:08:04.676Z,89.27
2018-02-04T19:10:30.716Z,88.89
2018-02-04T19:12:56.742Z,88.23
2018-02-04T19:15:22.710Z,88.32
2018-02-04T19:17:49.073Z,87.47
2018-02-04T19:20:15.092Z,87.37
2018-02-04T19:22:41.108Z,87.55
2018-02-04T19:25:07.156Z,88.55
2018-02-04T19:27:33.177Z,89.50
2018-02-04T19:29:59.251Z,90.36
2018-02-04T19:32:25.250Z,90.78
2018-02-04T19:34:51.659Z,90.23
2018-02-04T19:37:17.683Z,89.61
2018-02-04T19:39:43.740Z,89.22
2018-02-04T19:42:09.766Z,88.92
2018-02-04T19:44:35.816Z,88.19
2018-02-04T19:47:01.869Z,88.70
2018-02-04T19:49:27.905Z,88.87
2018-02-04T19:51:54.300Z,88.53
2018-02-04T19:54:20.334Z,89.60
2018-02-04T19:56:46.372Z,89.87
2018-02-04T19:59:12.350Z,89.94
2018-02-04T20:01:38.376Z,89.56
2018-02-04T20:04:04.415Z,89.97
2018-02-04T20:06:30.445Z,90.78
2018-02-04T20:08:57.284Z,90.69
2018-02-04T20:11:23.309Z,90.91
2018-02-04T20:13:49.344Z,90.90
2018-02-04T20:16:15.358Z,91.00
2018-02-04T20:18:41.368Z,91.19
2018-02-04T20:21:07.428Z,91.26
2018-02-04T20:23:33.421Z,92.13
2018-02-04T20:25:59.455Z,91.97
2018-02-04T20:28:25.487Z,92.42
2018-02-04T20:30:51.964Z,91.70
2018-02-04T20:33:19.757Z,91.62
2018-02-04T20:35:45.733Z,91.54
2018-02-04T20:38:11.757Z,91.58
2018-02-04T20:40:37.768Z,91.42
2018-02-04T20:43:04.133Z,91.50
2018-02-04T20:45:30.161Z,91.45
2018-02-04T20:47:56.164Z,91.55
2018-02-04T20:50:22.209Z,92.93
2018-02-04T20:52:48.264Z,93.13
2018-02-04T20:55:14.633Z,93.08
2018-02-04T20:57:41.560Z,93.07
2018-02-04T21:00:07.548Z,92.90
2018-02-04T21:02:33.621Z,92.23
2018-02-04T21:04:59.669Z,91.39
2018-02-04T21:07:26.093Z,90.74
2018-02-04T21:09:52.204Z,90.91
2018-02-04T21:12:18.231Z,91.47
2018-02-04T21:14:44.340Z,91.98
2018-02-04T21:17:10.379Z,92.37
2018-02-04T21:19:36.444Z,92.93
2018-02-04T21:22:02.540Z,92.85
2018-02-04T21:24:28.609Z,92.93
2018-02-04T21:26:54.565Z,93.17
2018-02-04T21:29:21.020Z,93.62
2018-02-04T21:31:47.041Z,94.14
2018-02-04T21:34:13.152Z,94.37
2018-02-04T21:36:39.200Z,94.34
2018-02-04T21:39:05.307Z,94.36
2018-02-04T21:41:31.332Z,94.36
2018-02-04T21:43:57.337Z,94.18
2018-02-04T21:46:23.720Z,94.21
2018-02-04T21:48:49.753Z,94.12
2018-02-04T21:51:15.832Z,93.77
2018-02-04T21:53:41.969Z,93.86
2018-02-04T21:56:07.986Z,93.28
2018-02-04T21:58:34.047Z,93.11
2018-02-04T22:01:00.111Z,92.64
2018-02-04T22:03:26.507Z,92.53
2018-02-04T22:05:52.556Z,92.42
2018-02-04T22:08:18.781Z,92.23
2018-02-04T22:10:44.785Z,91.51
2018-02-04T22:13:10.900Z,91.46
2018-02-04T22:15:36.956Z,90.68
2018-02-04T22:18:03.052Z,90.07
2018-02-04T22:20:29.395Z,90.47
2018-02-04T22:22:55.407Z,90.20
2018-02-04T22:25:21.417Z,89.37
2018-02-04T22:27:47.523Z,88.62
2018-02-04T22:30:13.540Z,88.35
2018-02-04T22:32:39.620Z,88.22
2018-02-04T22:35:05.600Z,88.01
2018-02-04T22:37:31.993Z,88.11
2018-02-04T22:39:57.969Z,87.08
2018-02-04T22:42:23.982Z,87.22
2018-02-04T22:44:50.017Z,87.55
2018-02-04T22:47:15.987Z,86.84
2018-02-04T22:49:42.005Z,86.58
2018-02-04T22:52:07.947Z,85.87
2018-02-04T22:54:34.368Z,86.16
2018-02-04T22:57:00.435Z,85.76
2018-02-04T22:59:26.460Z,85.37
2018-02-04T23:01:52.543Z,85.06
2018-02-04T23:04:18.648Z,84.84
2018-02-04T23:06:45.005Z,85.43
2018-02-04T23:09:11.030Z,84.98
2018-02-04T23:11:37.060Z,84.77
2018-02-04T23:14:03.094Z,84.77
2018-02-04T23:16:29.100Z,84.85
2018-02-04T23:18:55.181Z,84.83
2018-02-04T23:21:21.259Z,84.49
2018-02-04T23:23:47.248Z,84.32
2018-02-04T23:26:13.272Z,84.49
2018-02-04T23:28:39.292Z,83.98
2018-02-04T23:31:05.655Z,83.92
2018-02-04T23:33:31.705Z,83.82
2018-02-04T23:35:57.750Z,84.26
2018-02-04T23:38:23.813Z,84.08
2018-02-04T23:40:49.920Z,83.93
2018-02-04T23:43:15.941Z,83.95
2018-02-04T23:45:41.968Z,83.51
2018-02-04T23:48:07.996Z,83.86
2018-02-04T23:50:34.018Z,83.62
2018-02-04T23:53:00.404Z,84.07
2018-02-04T23:55:26.440Z,83.81
2018-02-04T23:57:52.481Z,83.53
